Time;durP1;ratioP1;P1;durP2;ratioP2;P2;SDS_P1;SDS_P2;PMS_P1;PMS_P2;Temp;Humidity;BMP_temperature;BMP_pressure;BME280_temperature;BME280_humidity;BME280_pressure;Samples;Min_cycle;Max_cycle;Signal;HPM_P1;HPM_P2
2023/07/26 00:02:12;;;;;;;;;;;;;;;15.25;72.33;99125.14;104106;279;113191;-53
2023/07/26 00:04:46;;;;;;;;;;;;;;;15.34;72.50;99125.60;104076;279;96788;-53
2023/07/26 00:07:18;;;;;;;;;;;;;;;15.46;72.28;99127.86;104080;279;97860;-53
2023/07/26 00:09:51;;;;;;;;;;;;;;;15.50;72.24;99128.35;104091;279;120554;-53
2023/07/26 00:12:24;;;;;;;;;;;;;;;15.49;72.21;99123.84;103868;280;105817;-53
2023/07/26 00:14:56;;;;;;;;;;;;;;;15.54;72.26;99129.73;104050;279;114620;-55
2023/07/26 00:17:29;;;;;;;;;;;;;;;15.54;72.35;99131.91;104068;279;96643;-55
2023/07/26 00:20:01;;;;;;;;;;;;;;;15.64;72.09;99131.87;104470;279;97561;-55
2023/07/26 00:22:33;;;;;;;;;;;;;;;15.73;72.06;99140.91;104085;279;121770;-55
2023/07/26 00:25:06;;;;;;;;;;;;;;;15.74;71.98;99139.08;104106;279;105068;-56
2023/07/26 00:27:38;;;;;;;;;;;;;;;15.73;72.17;99144.45;104095;279;114814;-55
2023/07/26 00:30:12;;;;;;;;;;;;;;;15.75;72.23;99150.90;104052;279;94579;-52
2023/07/26 00:32:45;;;;;;;;;;;;;;;15.79;72.29;99153.02;104136;279;97887;-51
2023/07/26 00:35:22;;;;;;;;;;;;;;;15.83;72.26;99151.05;104093;279;121790;-51
2023/07/26 00:37:54;;;;;;;;;;;;;;;15.93;72.33;99154.39;104482;279;103461;-52
2023/07/26 00:40:26;;;;;;;;;;;;;;;16.03;72.63;99157.89;104510;279;115006;-53
2023/07/26 00:42:58;;;;;;;;;;;;;;;16.10;73.13;99158.94;104046;279;94811;-53
2023/07/26 00:45:31;;;;;;;;;;;;;;;16.16;73.35;99158.48;103899;280;98104;-53
2023/07/26 00:48:04;;;;;;;;;;;;;;;16.18;73.88;99161.66;104079;279;122510;-53
2023/07/26 00:50:36;;;;;;;;;;;;;;;16.19;74.10;99167.17;104122;279;105245;-55
2023/07/26 00:53:09;;;;;;;;;;;;;;;16.19;74.56;99173.55;104081;279;114937;-55
2023/07/26 00:55:42;;;;;;;;;;;;;;;16.17;74.86;99175.16;104041;279;94930;-54
2023/07/26 00:58:15;;;;;;;;;;;;;;;16.17;75.04;99179.52;104088;279;96944;-54
2023/07/26 01:00:48;;;;;;;;;;;;;;;16.14;75.44;99180.35;104091;279;121844;-55
2023/07/26 01:03:20;;;;;;;;;;;;;;;16.13;75.62;99183.01;104039;279;106025;-56
2023/07/26 01:06:02;;;;;;;;;;;;;;;16.13;75.85;99183.33;104035;279;114632;-51
2023/07/26 01:08:41;;;;;;;;;;;;;;;16.14;76.03;99185.52;104068;279;96346;-54
2023/07/26 01:11:18;;;;;;;;;;;;;;;16.15;76.23;99185.60;104105;279;98000;-54
2023/07/26 01:13:54;;;;;;;;;;;;;;;16.16;76.35;99182.77;104477;279;122371;-53
2023/07/26 01:16:26;;;;;;;;;;;;;;;16.18;76.59;99189.77;104065;279;105599;-54
2023/07/26 01:18:58;;;;;;;;;;;;;;;16.18;76.75;99190.70;104076;279;114764;-52
2023/07/26 01:21:34;;;;;;;;;;;;;;;16.21;76.69;99190.25;104075;279;96087;-51
2023/07/26 01:24:07;;;;;;;;;;;;;;;16.25;76.76;99187.12;104085;279;96451;-55
2023/07/26 01:26:39;;;;;;;;;;;;;;;16.29;76.89;99193.82;104099;279;121794;-55
2023/07/26 01:29:12;;;;;;;;;;;;;;;16.28;77.10;99193.05;104071;279;106144;-55
2023/07/26 01:31:44;;;;;;;;;;;;;;;16.30;77.03;99186.96;104043;279;114457;-55
2023/07/26 01:34:17;;;;;;;;;;;;;;;16.29;77.20;99185.26;104470;279;97224;-53
2023/07/26 01:36:49;;;;;;;;;;;;;;;16.26;77.03;99191.34;104081;279;95485;-53
2023/07/26 01:39:21;;;;;;;;;;;;;;;16.24;77.40;99197.80;104062;279;122447;-53
2023/07/26 01:41:54;;;;;;;;;;;;;;;16.22;77.45;99200.13;104083;279;104328;-53
2023/07/26 01:44:26;;;;;;;;;;;;;;;16.22;77.43;99208.04;104444;279;113871;-51
2023/07/26 01:46:59;;;;;;;;;;;;;;;16.22;77.44;99210.09;104056;283;95029;-51
2023/07/26 01:49:31;;;;;;;;;;;;;;;16.27;77.38;99211.35;104482;279;97778;-54
2023/07/26 01:52:03;;;;;;;;;;;;;;;16.28;77.22;99210.92;104466;279;121381;-54
2023/07/26 01:54:35;;;;;;;;;;;;;;;16.28;77.57;99210.05;104055;279;104822;-53
2023/07/26 01:57:08;;;;;;;;;;;;;;;16.28;77.53;99210.66;104057;279;115780;-54
2023/07/26 01:59:40;;;;;;;;;;;;;;;16.32;77.46;99213.15;104033;278;95401;-54
2023/07/26 02:02:12;;;;;;;;;;;;;;;16.27;77.61;99208.19;104070;278;97277;-54
2023/07/26 02:04:45;;;;;;;;;;;;;;;16.25;77.66;99195.08;104064;279;121711;-54
2023/07/26 02:07:17;;;;;;;;;;;;;;;16.22;77.41;99186.17;104457;279;104685;-54
2023/07/26 02:09:50;;;;;;;;;;;;;;;16.18;77.36;99184.05;104453;279;115036;-51
2023/07/26 02:12:22;;;;;;;;;;;;;;;16.14;77.34;99192.52;104090;279;93391;-51
2023/07/26 02:14:54;;;;;;;;;;;;;;;16.11;77.53;99194.87;104510;279;98040;-53
2023/07/26 02:17:26;;;;;;;;;;;;;;;16.09;77.59;99192.88;104508;279;122683;-53
2023/07/26 02:19:58;;;;;;;;;;;;;;;16.08;77.76;99185.89;104510;279;106312;-54
2023/07/26 02:22:30;;;;;;;;;;;;;;;16.02;77.81;99186.04;104055;279;114248;-54
2023/07/26 02:25:03;;;;;;;;;;;;;;;15.92;77.85;99189.95;103854;279;94067;-54
2023/07/26 02:27:35;;;;;;;;;;;;;;;15.86;78.17;99193.58;104083;279;97293;-54
2023/07/26 02:30:08;;;;;;;;;;;;;;;15.80;78.32;99201.13;104081;279;120143;-55
2023/07/26 02:32:40;;;;;;;;;;;;;;;15.72;78.52;99207.01;104074;279;104844;-55
2023/07/26 02:35:13;;;;;;;;;;;;;;;15.69;78.64;99206.30;104452;279;113009;-54
2023/07/26 02:37:45;;;;;;;;;;;;;;;15.66;78.63;99204.95;104455;279;96286;-54
2023/07/26 02:40:17;;;;;;;;;;;;;;;15.68;79.02;99206.61;104468;279;96224;-55
2023/07/26 02:42:49;;;;;;;;;;;;;;;15.67;79.18;99206.36;104464;279;121603;-55
2023/07/26 02:45:22;;;;;;;;;;;;;;;15.66;79.32;99204.69;104050;279;104087;-55
2023/07/26 02:47:54;;;;;;;;;;;;;;;15.68;79.22;99204.28;104041;279;113880;-55
2023/07/26 02:50:26;;;;;;;;;;;;;;;15.71;79.26;99202.15;104079;279;97169;-54
2023/07/26 02:52:58;;;;;;;;;;;;;;;15.69;79.39;99199.23;104050;279;97469;-54
2023/07/26 02:55:30;;;;;;;;;;;;;;;15.69;79.30;99201.86;104064;271;122078;-53
2023/07/26 02:58:03;;;;;;;;;;;;;;;15.71;79.24;99208.04;104068;279;105846;-53
2023/07/26 03:00:35;;;;;;;;;;;;;;;15.70;79.38;99213.19;104067;279;114547;-53
2023/07/26 03:03:07;;;;;;;;;;;;;;;15.70;79.40;99213.25;104461;279;97025;-52
2023/07/26 03:05:40;;;;;;;;;;;;;;;15.72;79.51;99208.92;104063;279;98208;-55
2023/07/26 03:08:12;;;;;;;;;;;;;;;15.71;79.81;99208.95;104064;279;122077;-56
2023/07/26 03:10:44;;;;;;;;;;;;;;;15.77;79.73;99207.24;104105;279;103205;-54
2023/07/26 03:13:16;;;;;;;;;;;;;;;15.78;79.77;99209.31;104048;279;113665;-54
2023/07/26 03:15:49;;;;;;;;;;;;;;;15.80;79.74;99219.20;104053;279;96164;-51
2023/07/26 03:18:21;;;;;;;;;;;;;;;15.79;80.03;99225.88;104093;279;97139;-51
2023/07/26 03:20:54;;;;;;;;;;;;;;;15.79;79.76;99229.60;104071;279;121553;-56
2023/07/26 03:23:27;;;;;;;;;;;;;;;15.81;79.87;99233.06;104490;279;103544;-56
2023/07/26 03:25:59;;;;;;;;;;;;;;;15.84;80.08;99235.92;104065;279;115107;-52
2023/07/26 03:28:31;;;;;;;;;;;;;;;15.86;80.16;99236.28;104447;279;96335;-54
2023/07/26 03:31:03;;;;;;;;;;;;;;;15.95;80.09;99233.95;104496;279;96622;-53
2023/07/26 03:33:35;;;;;;;;;;;;;;;16.04;79.94;99232.98;104049;279;122019;-51
2023/07/26 03:36:08;;;;;;;;;;;;;;;16.06;79.92;99232.19;104088;279;106239;-51
2023/07/26 03:38:40;;;;;;;;;;;;;;;16.10;79.87;99235.30;104056;279;114255;-51
2023/07/26 03:41:12;;;;;;;;;;;;;;;16.19;79.58;99234.64;104078;279;97041;-51
2023/07/26 03:43:45;;;;;;;;;;;;;;;16.26;79.39;99242.58;104096;279;96715;-53
2023/07/26 03:46:17;;;;;;;;;;;;;;;16.32;79.58;99245.91;104090;279;122060;-52
2023/07/26 03:48:49;;;;;;;;;;;;;;;16.39;79.53;99251.13;103855;280;107843;-55
2023/07/26 03:51:21;;;;;;;;;;;;;;;16.51;79.62;99251.87;104072;279;114573;-55
2023/07/26 03:53:53;;;;;;;;;;;;;;;16.71;79.59;99253.85;104516;279;93158;-51
2023/07/26 03:56:25;;;;;;;;;;;;;;;17.39;79.43;99253.64;104102;279;96696;-51
2023/07/26 03:58:57;;;;;;;;;;;;;;;18.66;78.05;99252.95;104078;279;122015;-55
2023/07/26 04:01:30;;;;;;;;;;;;;;;19.01;77.15;99256.48;104103;279;104639;-55
2023/07/26 04:04:02;;;;;;;;;;;;;;;19.80;75.75;99253.29;104491;279;114836;-55
2023/07/26 04:06:34;;;;;;;;;;;;;;;20.61;74.24;99255.73;104467;279;94391;-56
2023/07/26 04:09:06;;;;;;;;;;;;;;;21.37;72.53;99256.06;104492;279;96901;-55
2023/07/26 04:11:39;;;;;;;;;;;;;;;21.88;71.23;99253.64;104111;295;121710;-56
2023/07/26 04:14:11;;;;;;;;;;;;;;;21.56;70.15;99256.23;104075;279;105517;-53
2023/07/26 04:16:43;;;;;;;;;;;;;;;20.99;69.49;99261.94;104103;279;113837;-53
2023/07/26 04:19:15;;;;;;;;;;;;;;;20.56;69.58;99269.42;104090;279;94743;-53
2023/07/26 04:21:47;;;;;;;;;;;;;;;20.37;69.48;99271.44;104109;279;97626;-53
2023/07/26 04:24:19;;;;;;;;;;;;;;;20.02;69.25;99278.75;104465;279;122120;-53
2023/07/26 04:26:52;;;;;;;;;;;;;;;19.68;69.43;99277.45;104482;279;105835;-53
2023/07/26 04:29:24;;;;;;;;;;;;;;;19.47;69.67;99275.65;104076;279;115282;-54
2023/07/26 04:31:57;;;;;;;;;;;;;;;19.21;70.07;99274.52;104065;279;94583;-56
2023/07/26 04:34:29;;;;;;;;;;;;;;;19.10;70.12;99279.88;104514;279;96538;-52
2023/07/26 04:37:01;;;;;;;;;;;;;;;19.02;70.32;99281.13;104078;279;121347;-52
2023/07/26 04:39:34;;;;;;;;;;;;;;;19.04;70.51;99282.70;104096;279;104665;-54
2023/07/26 04:42:06;;;;;;;;;;;;;;;18.95;70.53;99285.16;104478;279;113285;-54
2023/07/26 04:44:39;;;;;;;;;;;;;;;18.99;70.55;99286.20;104492;279;93244;-53
2023/07/26 04:47:12;;;;;;;;;;;;;;;19.01;70.86;99288.35;104099;279;97159;-53
2023/07/26 04:49:44;;;;;;;;;;;;;;;19.03;70.82;99292.78;104494;279;120883;-53
2023/07/26 04:52:16;;;;;;;;;;;;;;;19.03;71.01;99291.58;104087;279;106401;-53
2023/07/26 04:54:48;;;;;;;;;;;;;;;19.14;70.80;99287.10;104514;279;113644;-51
2023/07/26 04:57:20;;;;;;;;;;;;;;;19.48;70.35;99287.75;104071;279;93602;-51
2023/07/26 04:59:53;;;;;;;;;;;;;;;20.90;69.64;99290.44;104093;267;97603;-53
2023/07/26 05:02:25;;;;;;;;;;;;;;;22.81;66.95;99285.82;104470;279;121489;-53
2023/07/26 05:04:57;;;;;;;;;;;;;;;24.32;64.64;99282.39;104093;279;103835;-52
2023/07/26 05:07:29;;;;;;;;;;;;;;;25.73;61.62;99295.39;104435;267;114539;-52
2023/07/26 05:10:01;;;;;;;;;;;;;;;26.98;58.83;99295.77;104095;279;93951;-53
2023/07/26 05:12:34;;;;;;;;;;;;;;;27.97;56.24;99301.53;104124;279;97970;-54
2023/07/26 05:15:07;;;;;;;;;;;;;;;28.98;54.32;99294.61;104499;279;122558;-52
2023/07/26 05:17:39;;;;;;;;;;;;;;;29.63;51.48;99292.13;103742;279;488149;-53
2023/07/26 05:20:12;;;;;;;;;;;;;;;30.20;49.49;99296.19;103833;279;114799;-52
2023/07/26 05:22:44;;;;;;;;;;;;;;;30.78;47.76;99289.98;104091;279;94423;-52
2023/07/26 05:25:16;;;;;;;;;;;;;;;31.03;46.31;99286.61;104133;279;96710;-54
2023/07/26 05:27:49;;;;;;;;;;;;;;;31.35;44.63;99283.20;104499;279;122031;-54
2023/07/26 05:30:21;;;;;;;;;;;;;;;31.50;41.98;99282.25;104048;279;103553;-54
2023/07/26 05:32:56;;;;;;;;;;;;;;;30.98;41.69;99290.88;104477;279;113956;-54
2023/07/26 05:35:29;;;;;;;;;;;;;;;31.35;40.96;99290.66;104098;279;94950;-54
2023/07/26 05:38:03;;;;;;;;;;;;;;;31.74;39.95;99289.75;104104;279;97867;-54
2023/07/26 05:40:35;;;;;;;;;;;;;;;32.25;39.89;99296.17;104080;279;122235;-62
2023/07/26 05:43:08;;;;;;;;;;;;;;;32.43;38.75;99302.55;104082;279;105211;-55
2023/07/26 05:45:41;;;;;;;;;;;;;;;32.31;37.95;99304.95;104477;283;112621;-54
2023/07/26 05:48:14;;;;;;;;;;;;;;;30.95;38.49;99305.95;104070;279;93854;-55
2023/07/26 05:50:47;;;;;;;;;;;;;;;29.30;38.93;99314.16;104076;279;96513;-54
2023/07/26 05:53:20;;;;;;;;;;;;;;;28.32;39.92;99316.52;104089;279;119556;-54
2023/07/26 05:55:53;;;;;;;;;;;;;;;28.19;40.74;99319.78;104065;279;105835;-63
2023/07/26 05:58:25;;;;;;;;;;;;;;;28.92;40.87;99322.98;104493;279;114579;-55
2023/07/26 06:00:59;;;;;;;;;;;;;;;28.77;40.32;99331.74;103849;279;95658;-55
2023/07/26 06:03:36;;;;;;;;;;;;;;;27.29;40.82;99341.24;103811;279;98515;-55
2023/07/26 06:06:09;;;;;;;;;;;;;;;25.99;42.07;99345.31;104093;279;121164;-54
2023/07/26 06:08:41;;;;;;;;;;;;;;;25.17;43.17;99347.00;104497;279;105599;-54
2023/07/26 06:11:14;;;;;;;;;;;;;;;24.67;44.30;99358.04;104052;279;114842;-54
2023/07/26 06:13:49;;;;;;;;;;;;;;;24.23;45.31;99363.25;104115;279;93372;-54
2023/07/26 06:16:22;;;;;;;;;;;;;;;23.86;46.10;99368.63;104104;279;96636;-54
2023/07/26 06:19:01;;;;;;;;;;;;;;;23.50;46.62;99365.35;104048;279;121376;-54
2023/07/26 06:21:36;;;;;;;;;;;;;;;23.20;47.41;99365.54;104077;279;104818;-54
2023/07/26 06:24:10;;;;;;;;;;;;;;;22.99;47.66;99373.96;103922;280;114267;-54
2023/07/26 06:26:43;;;;;;;;;;;;;;;22.83;48.14;99370.27;104057;279;93856;-64
2023/07/26 06:29:16;;;;;;;;;;;;;;;22.78;48.62;99371.70;103832;279;98671;-54
2023/07/26 06:31:48;;;;;;;;;;;;;;;22.71;49.04;99379.88;104440;279;121838;-63
2023/07/26 06:34:21;;;;;;;;;;;;;;;22.60;49.58;99384.89;104034;279;104381;-59
2023/07/26 06:36:54;;;;;;;;;;;;;;;22.52;49.87;99379.85;104413;279;114002;-60
2023/07/26 06:39:27;;;;;;;;;;;;;;;22.50;50.18;99378.27;104041;279;94359;-56
2023/07/26 06:42:00;;;;;;;;;;;;;;;22.47;50.27;99375.83;104478;279;95881;-56
2023/07/26 06:44:33;;;;;;;;;;;;;;;22.57;50.31;99377.87;104015;279;122264;-57
2023/07/26 06:47:05;;;;;;;;;;;;;;;22.69;50.56;99371.73;104009;279;104915;-57
2023/07/26 06:49:38;;;;;;;;;;;;;;;22.86;50.65;99367.96;104058;279;113781;-61
2023/07/26 06:52:10;;;;;;;;;;;;;;;23.26;50.38;99356.80;104442;279;93622;-60
2023/07/26 06:54:43;;;;;;;;;;;;;;;23.68;50.48;99363.52;104227;279;96892;-55
2023/07/26 06:57:15;;;;;;;;;;;;;;;23.87;49.96;99373.19;104448;279;120867;-55
2023/07/26 06:59:47;;;;;;;;;;;;;;;23.81;49.51;99381.95;104018;279;105412;-60
2023/07/26 07:02:20;;;;;;;;;;;;;;;23.79;49.33;99370.89;103997;279;113282;-60
2023/07/26 07:04:52;;;;;;;;;;;;;;;23.78;49.66;99368.48;104003;279;94286;-59
2023/07/26 07:07:25;;;;;;;;;;;;;;;23.95;49.65;99369.19;104009;279;97271;-59
2023/07/26 07:09:57;;;;;;;;;;;;;;;24.18;49.86;99367.05;104430;279;120634;-60
2023/07/26 07:12:30;;;;;;;;;;;;;;;24.43;49.35;99360.12;104038;279;104849;-59
2023/07/26 07:15:02;;;;;;;;;;;;;;;24.34;49.30;99356.81;103938;279;114967;-58
2023/07/26 07:17:36;;;;;;;;;;;;;;;24.34;49.22;99363.73;104021;279;92928;-59
2023/07/26 07:20:10;;;;;;;;;;;;;;;24.86;49.11;99367.38;104456;279;97489;-60
2023/07/26 07:22:42;;;;;;;;;;;;;;;25.94;48.64;99374.77;104026;279;121484;-61
2023/07/26 07:25:15;;;;;;;;;;;;;;;26.74;46.86;99373.98;104034;279;105207;-56
2023/07/26 07:27:47;;;;;;;;;;;;;;;27.42;46.42;99375.26;104066;279;114516;-56
2023/07/26 07:30:20;;;;;;;;;;;;;;;28.12;45.34;99382.52;104048;279;94390;-56
2023/07/26 07:32:52;;;;;;;;;;;;;;;29.39;44.25;99378.84;104087;279;97687;-56
2023/07/26 07:35:24;;;;;;;;;;;;;;;29.28;42.06;99379.68;104071;279;121523;-57
2023/07/26 07:37:56;;;;;;;;;;;;;;;28.90;42.28;99379.80;104074;279;105220;-57
2023/07/26 07:40:29;;;;;;;;;;;;;;;28.60;41.99;99380.05;104070;279;113895;-57
2023/07/26 07:43:01;;;;;;;;;;;;;;;27.64;42.46;99383.40;104081;279;93841;-57
2023/07/26 07:45:33;;;;;;;;;;;;;;;26.86;43.07;99385.02;104537;279;96079;-57
2023/07/26 07:48:06;;;;;;;;;;;;;;;26.17;43.65;99379.09;103733;279;121770;-57
2023/07/26 07:50:38;;;;;;;;;;;;;;;25.58;44.20;99374.73;104090;279;104650;-60
2023/07/26 07:53:12;;;;;;;;;;;;;;;25.37;45.01;99369.16;104081;279;112980;-57
2023/07/26 07:55:44;;;;;;;;;;;;;;;25.42;45.53;99369.61;104094;279;95214;-61
2023/07/26 07:58:16;;;;;;;;;;;;;;;26.02;45.73;99375.08;104120;279;98345;-61
2023/07/26 08:00:49;;;;;;;;;;;;;;;26.57;44.90;99369.14;104084;279;122463;-58
2023/07/26 08:03:22;;;;;;;;;;;;;;;27.15;44.62;99367.21;104090;279;105311;-59
2023/07/26 08:05:55;;;;;;;;;;;;;;;27.61;44.04;99365.04;104065;279;113894;-60
2023/07/26 08:08:28;;;;;;;;;;;;;;;27.82;43.37;99357.35;104071;279;94144;-60
2023/07/26 08:11:03;;;;;;;;;;;;;;;28.00;42.94;99367.00;104113;279;96099;-58
2023/07/26 08:13:35;;;;;;;;;;;;;;;28.03;42.71;99363.02;104110;279;121824;-60
2023/07/26 08:16:08;;;;;;;;;;;;;;;28.46;42.48;99365.08;104056;279;104388;-60
2023/07/26 08:18:40;;;;;;;;;;;;;;;28.39;42.05;99361.73;104498;279;115432;-60
2023/07/26 08:21:13;;;;;;;;;;;;;;;28.21;42.11;99361.11;104070;279;93468;-60
2023/07/26 08:23:46;;;;;;;;;;;;;;;27.77;42.16;99356.25;104518;279;95709;-60
2023/07/26 08:26:19;;;;;;;;;;;;;;;27.51;42.70;99359.39;104063;279;121998;-59
2023/07/26 08:28:51;;;;;;;;;;;;;;;27.40;42.69;99359.14;104087;279;105604;-58
2023/07/26 08:31:24;;;;;;;;;;;;;;;27.02;42.89;99365.21;104108;279;112756;-58
2023/07/26 08:33:56;;;;;;;;;;;;;;;26.28;43.04;99370.77;104095;279;93530;-59
2023/07/26 08:36:29;;;;;;;;;;;;;;;25.74;43.82;99368.52;104101;279;97454;-59
2023/07/26 08:39:02;;;;;;;;;;;;;;;25.47;43.94;99371.54;104101;279;122266;-59
2023/07/26 08:41:39;;;;;;;;;;;;;;;25.20;44.44;99366.84;104089;279;104762;-58
2023/07/26 08:44:12;;;;;;;;;;;;;;;24.95;44.88;99375.30;104071;279;113398;-60
2023/07/26 08:46:50;;;;;;;;;;;;;;;24.82;45.18;99381.25;104055;279;94677;-61
2023/07/26 08:49:24;;;;;;;;;;;;;;;24.71;45.04;99387.02;104101;279;95784;-61
2023/07/26 08:51:59;;;;;;;;;;;;;;;24.54;45.41;99387.52;104099;279;122252;-59
2023/07/26 08:54:33;;;;;;;;;;;;;;;24.71;45.78;99388.68;104079;279;103891;-59
2023/07/26 08:57:08;;;;;;;;;;;;;;;24.87;45.99;99387.44;104068;279;114323;-60
2023/07/26 08:59:42;;;;;;;;;;;;;;;24.76;46.11;99393.13;104496;279;94750;-59
2023/07/26 09:02:16;;;;;;;;;;;;;;;24.64;46.03;99399.53;104521;279;96999;-58
2023/07/26 09:04:49;;;;;;;;;;;;;;;24.52;46.12;99392.70;104095;279;121435;-61
2023/07/26 09:07:21;;;;;;;;;;;;;;;24.62;46.57;99396.59;104058;279;105882;-61
2023/07/26 09:09:54;;;;;;;;;;;;;;;24.71;46.93;99393.04;104497;279;113885;-60
2023/07/26 09:12:29;;;;;;;;;;;;;;;24.80;47.08;99398.20;104082;279;95012;-54
2023/07/26 09:15:06;;;;;;;;;;;;;;;24.80;47.07;99394.42;104093;279;97347;-53
2023/07/26 09:17:43;;;;;;;;;;;;;;;24.71;46.90;99393.94;104096;279;120313;-53
2023/07/26 09:20:23;;;;;;;;;;;;;;;24.62;46.74;99392.95;104110;279;105800;-53
2023/07/26 09:23:05;;;;;;;;;;;;;;;24.89;47.11;99384.42;104498;279;114716;-53
2023/07/26 09:25:40;;;;;;;;;;;;;;;25.03;46.38;99384.72;104089;279;95187;-56
2023/07/26 09:28:13;;;;;;;;;;;;;;;24.86;46.21;99389.85;104090;279;97821;-56
2023/07/26 09:30:46;;;;;;;;;;;;;;;24.91;46.00;99387.38;104070;279;122736;-53
2023/07/26 09:33:18;;;;;;;;;;;;;;;24.97;45.52;99390.61;104500;279;106121;-53
2023/07/26 09:35:52;;;;;;;;;;;;;;;25.16;45.53;99377.80;104452;279;113094;-56
2023/07/26 09:38:27;;;;;;;;;;;;;;;25.32;45.29;99380.01;104470;279;94335;-56
2023/07/26 09:40:59;;;;;;;;;;;;;;;25.30;43.89;99381.71;104085;279;96638;-54
2023/07/26 09:43:33;;;;;;;;;;;;;;;25.24;42.97;99388.75;104091;279;121613;-53
2023/07/26 09:46:06;;;;;;;;;;;;;;;25.14;42.47;99401.13;103933;280;105425;-54
2023/07/26 09:48:55;;;;;;;;;;;;;;;25.12;42.33;99403.16;104046;279;113484;-53
2023/07/26 09:51:29;;;;;;;;;;;;;;;25.09;41.79;99398.25;104077;279;93757;-53
2023/07/26 09:54:01;;;;;;;;;;;;;;;24.79;41.54;99395.38;104516;279;96286;-54
2023/07/26 09:56:34;;;;;;;;;;;;;;;24.75;41.78;99397.89;104484;279;121566;-54
2023/07/26 09:59:08;;;;;;;;;;;;;;;24.65;41.30;99402.17;104479;279;105757;-54
2023/07/26 10:01:43;;;;;;;;;;;;;;;24.46;41.19;99404.36;104071;279;114243;-54
2023/07/26 10:04:27;;;;;;;;;;;;;;;24.47;41.48;99412.89;104090;279;93465;-54
2023/07/26 10:07:02;;;;;;;;;;;;;;;24.45;41.83;99418.77;104086;279;97405;-54
2023/07/26 10:09:39;;;;;;;;;;;;;;;24.34;41.44;99425.60;104496;279;122076;-53
2023/07/26 10:12:12;;;;;;;;;;;;;;;24.15;41.38;99423.63;104086;279;105582;-54
2023/07/26 10:14:44;;;;;;;;;;;;;;;23.98;41.43;99429.33;104080;279;114540;-54
2023/07/26 10:17:19;;;;;;;;;;;;;;;23.84;41.63;99428.14;104083;279;94265;-58
2023/07/26 10:19:52;;;;;;;;;;;;;;;23.48;41.23;99428.17;104129;279;96659;-59
2023/07/26 10:22:24;;;;;;;;;;;;;;;23.36;41.82;99433.38;103899;279;122187;-59
2023/07/26 10:24:57;;;;;;;;;;;;;;;23.22;41.96;99427.67;104483;279;105335;-56
2023/07/26 10:27:29;;;;;;;;;;;;;;;23.10;41.89;99427.17;104070;279;114114;-56
2023/07/26 10:30:02;;;;;;;;;;;;;;;23.02;42.15;99425.95;104072;279;94887;-59
2023/07/26 10:32:40;;;;;;;;;;;;;;;22.98;42.21;99431.17;104111;279;97924;-59
2023/07/26 10:35:12;;;;;;;;;;;;;;;22.84;42.89;99435.35;104059;279;120883;-57
2023/07/26 10:37:47;;;;;;;;;;;;;;;22.73;43.03;99437.52;104483;279;106209;-58
2023/07/26 10:40:33;;;;;;;;;;;;;;;22.62;43.25;99442.08;104044;279;114218;-58
2023/07/26 10:43:32;;;;;;;;;;;;;;;22.47;43.62;99441.72;104087;279;92492;-62
2023/07/26 10:46:11;;;;;;;;;;;;;;;22.40;43.96;99441.58;104091;279;96269;-63
2023/07/26 10:48:44;;;;;;;;;;;;;;;22.25;44.34;99432.86;104076;279;120794;-63
2023/07/26 10:51:27;;;;;;;;;;;;;;;22.16;44.66;99435.42;104499;279;105175;-63
2023/07/26 10:53:59;;;;;;;;;;;;;;;22.06;44.82;99440.23;104500;279;114201;-62
2023/07/26 10:56:34;;;;;;;;;;;;;;;21.89;45.05;99432.00;104483;279;93071;-61
2023/07/26 10:59:25;;;;;;;;;;;;;;;21.73;45.13;99427.69;104101;279;97229;-61
2023/07/26 11:02:05;;;;;;;;;;;;;;;21.62;45.77;99426.07;104077;279;121675;-61
2023/07/26 11:04:43;;;;;;;;;;;;;;;21.57;46.12;99423.11;104104;279;105280;-61
2023/07/26 11:07:15;;;;;;;;;;;;;;;21.53;46.18;99425.84;104080;279;113579;-61
2023/07/26 11:09:50;;;;;;;;;;;;;;;21.51;46.10;99425.03;104501;279;95335;-61
2023/07/26 11:12:26;;;;;;;;;;;;;;;21.44;46.32;99426.95;104103;283;98049;-61
2023/07/26 11:15:00;;;;;;;;;;;;;;;21.27;46.34;99427.36;104073;279;121932;-62
2023/07/26 11:17:33;;;;;;;;;;;;;;;21.24;46.35;99429.47;104081;279;105158;-62
2023/07/26 11:20:06;;;;;;;;;;;;;;;21.22;46.46;99431.56;104053;279;113950;-62
2023/07/26 11:22:39;;;;;;;;;;;;;;;21.20;46.40;99437.29;104078;279;94660;-62
2023/07/26 11:25:12;;;;;;;;;;;;;;;21.19;46.77;99441.85;104102;279;96816;-64
2023/07/26 11:27:46;;;;;;;;;;;;;;;21.18;46.74;99451.52;104493;279;122670;-54
2023/07/26 11:30:20;;;;;;;;;;;;;;;21.07;47.42;99456.30;104108;279;104507;-54
2023/07/26 11:32:52;;;;;;;;;;;;;;;20.88;48.45;99468.14;104101;279;114553;-54
2023/07/26 11:35:25;;;;;;;;;;;;;;;20.75;49.88;99473.27;104524;283;94803;-51
2023/07/26 11:37:58;;;;;;;;;;;;;;;20.60;50.89;99479.13;104128;279;96342;-51
2023/07/26 11:40:31;;;;;;;;;;;;;;;20.48;51.53;99477.77;104082;279;120504;-51
2023/07/26 11:43:06;;;;;;;;;;;;;;;20.37;52.41;99484.26;104079;279;104594;-52
2023/07/26 11:45:43;;;;;;;;;;;;;;;20.24;53.02;99486.55;104062;267;113850;-53
2023/07/26 11:48:16;;;;;;;;;;;;;;;20.11;53.74;99491.30;104467;279;93662;-53
2023/07/26 11:50:48;;;;;;;;;;;;;;;20.08;54.56;99493.27;104092;279;96384;-53
2023/07/26 11:53:28;;;;;;;;;;;;;;;20.05;55.40;99502.55;104460;279;121054;-53
2023/07/26 11:56:06;;;;;;;;;;;;;;;19.95;56.44;99509.33;104082;279;104515;-53
2023/07/26 11:58:43;;;;;;;;;;;;;;;19.69;57.10;99509.60;104088;279;113664;-53
2023/07/26 12:01:17;;;;;;;;;;;;;;;19.61;58.27;99519.34;103825;279;94389;-53
2023/07/26 12:03:51;;;;;;;;;;;;;;;19.57;58.98;99522.73;104107;279;96447;-50
2023/07/26 12:06:29;;;;;;;;;;;;;;;19.52;59.46;99526.48;104090;279;120394;-50
2023/07/26 12:09:09;;;;;;;;;;;;;;;19.37;60.48;99528.55;104133;279;104273;-53
2023/07/26 12:11:43;;;;;;;;;;;;;;;19.32;60.90;99530.50;104106;279;114327;-53
2023/07/26 12:14:19;;;;;;;;;;;;;;;19.27;61.12;99537.36;104112;279;94273;-55
2023/07/26 12:16:53;;;;;;;;;;;;;;;19.09;61.79;99536.23;104081;279;97603;-54
2023/07/26 12:19:26;;;;;;;;;;;;;;;19.02;62.38;99541.39;104087;279;122201;-56
2023/07/26 12:22:00;;;;;;;;;;;;;;;18.93;62.96;99542.27;104095;279;106204;-53
2023/07/26 12:24:33;;;;;;;;;;;;;;;18.89;63.66;99555.16;104062;279;112465;-56
2023/07/26 12:27:06;;;;;;;;;;;;;;;18.78;64.40;99555.41;104074;279;94817;-52
2023/07/26 12:29:40;;;;;;;;;;;;;;;18.79;64.37;99562.44;104132;279;97122;-53
2023/07/26 12:32:17;;;;;;;;;;;;;;;18.70;64.65;99566.59;104067;279;122103;-54
2023/07/26 12:34:50;;;;;;;;;;;;;;;18.64;65.34;99570.98;103943;284;104001;-54
2023/07/26 12:37:33;;;;;;;;;;;;;;;18.58;65.74;99580.17;104045;279;114510;-55
2023/07/26 12:40:08;;;;;;;;;;;;;;;18.57;66.59;99583.34;103858;279;93063;-55
2023/07/26 12:42:41;;;;;;;;;;;;;;;18.56;67.17;99591.91;104074;279;98062;-53
2023/07/26 12:45:16;;;;;;;;;;;;;;;18.58;67.41;99597.62;104480;279;121979;-56
2023/07/26 12:47:48;;;;;;;;;;;;;;;18.46;67.62;99593.22;104070;279;105158;-53
2023/07/26 12:50:21;;;;;;;;;;;;;;;18.45;68.26;99596.99;104075;279;114133;-54
2023/07/26 12:52:54;;;;;;;;;;;;;;;18.45;68.50;99600.05;104051;279;94197;-53
2023/07/26 12:55:29;;;;;;;;;;;;;;;18.37;68.85;99600.52;104508;279;98036;-53
2023/07/26 12:58:02;;;;;;;;;;;;;;;18.41;68.98;99604.92;104094;279;122161;-53
2023/07/26 13:00:35;;;;;;;;;;;;;;;18.48;69.38;99604.86;104104;279;105701;-51
2023/07/26 13:03:08;;;;;;;;;;;;;;;18.51;69.75;99607.35;104495;279;113184;-54
2023/07/26 13:05:50;;;;;;;;;;;;;;;18.51;69.87;99610.48;104086;279;94465;-52
2023/07/26 13:08:23;;;;;;;;;;;;;;;18.50;70.16;99617.62;103977;279;97635;-52
2023/07/26 13:11:00;;;;;;;;;;;;;;;18.46;70.18;99615.88;104084;279;120842;-53
2023/07/26 13:13:32;;;;;;;;;;;;;;;18.40;70.13;99616.79;103864;279;104680;-52